Time;durP1;ratioP1;P1;durP2;ratioP2;P2;SDS_P1;SDS_P2;PMS_P1;PMS_P2;Temp;Humidity;BMP_temperature;BMP_pressure;BME280_temperature;BME280_humidity;BME280_pressure;Samples;Min_cycle;Max_cycle;Signal;HPM_P1;HPM_P2
2022/05/03 00:01:22;;;;;;;12.48;9.23;;;10.00;99.90;;;;;;5031775;28;20559;-83
2022/05/03 00:04:02;;;;;;;12.63;9.73;;;10.00;99.90;;;;;;5031379;28;20064;-83
2022/05/03 00:06:56;;;;;;;11.80;9.00;;;10.00;99.90;;;;;;5015375;28;20045;-83
2022/05/03 00:09:38;;;;;;;10.90;8.90;;;10.10;99.90;;;;;;5031797;28;20429;-83
2022/05/03 00:12:08;;;;;;;12.43;10.13;;;10.10;99.90;;;;;;5015181;28;20069;-83
2022/05/03 00:14:56;;;;;;;14.65;9.85;;;10.20;99.90;;;;;;5031106;28;20034;-83
2022/05/03 00:17:22;;;;;;;14.48;9.25;;;10.20;99.90;;;;;;5014518;28;20041;-83
2022/05/03 00:19:48;;;;;;;13.82;9.48;;;10.20;99.90;;;;;;5014251;28;20048;-83
2022/05/03 00:22:14;;;;;;;13.35;9.85;;;10.20;99.90;;;;;;5014380;28;20397;-83
2022/05/03 00:24:43;;;;;;;12.95;9.88;;;10.20;99.90;;;;;;5030468;28;20029;-83
2022/05/03 00:27:09;;;;;;;11.23;9.38;;;10.20;99.90;;;;;;5014827;28;20496;-83
2022/05/03 00:29:36;;;;;;;12.15;9.50;;;10.20;99.90;;;;;;5015073;28;20037;-82
2022/05/03 00:32:02;;;;;;;13.35;9.23;;;10.20;99.90;;;;;;5031134;28;20031;-83
2022/05/03 00:34:32;;;;;;;10.40;8.88;;;10.20;99.90;;;;;;5032708;28;20029;-83
2022/05/03 00:36:57;;;;;;;12.40;9.43;;;10.20;99.90;;;;;;5031802;28;20033;-83
2022/05/03 00:39:23;;;;;;;13.10;9.38;;;10.20;99.90;;;;;;5031721;28;20079;-83
2022/05/03 00:42:17;;;;;;;13.25;10.07;;;10.10;99.90;;;;;;5014679;28;20037;-83
2022/05/03 00:44:55;;;;;;;14.48;10.27;;;10.00;99.90;;;;;;5014140;28;20116;-83
2022/05/03 00:47:37;;;;;;;12.98;9.82;;;10.00;99.90;;;;;;5032071;28;20882;-83
2022/05/03 00:50:13;;;;;;;13.98;9.55;;;9.90;99.90;;;;;;5014294;28;20029;-83
2022/05/03 00:52:55;;;;;;;14.43;10.90;;;9.80;99.90;;;;;;5014439;28;20040;-83
2022/05/03 00:55:20;;;;;;;12.23;9.60;;;9.80;99.90;;;;;;5014165;28;20703;-83
2022/05/03 00:58:20;;;;;;;12.00;10.02;;;9.70;99.90;;;;;;5015644;28;20045;-83
2022/05/03 01:00:53;;;;;;;11.68;8.68;;;9.70;99.90;;;;;;5034304;28;20029;-83
2022/05/03 01:03:29;;;;;;;16.10;9.43;;;9.60;99.90;;;;;;5034913;28;20091;-83
2022/05/03 01:06:21;;;;;;;12.27;9.02;;;9.60;99.90;;;;;;5018698;28;20029;-83
2022/05/03 01:09:09;;;;;;;12.85;10.07;;;9.60;99.90;;;;;;5018456;28;20034;-83
2022/05/03 01:11:53;;;;;;;12.82;9.90;;;9.50;99.90;;;;;;5034616;28;20030;-82
2022/05/03 01:14:33;;;;;;;12.00;9.60;;;9.50;99.90;;;;;;5034733;28;20025;-83
2022/05/03 01:17:00;;;;;;;13.02;10.52;;;9.50;99.90;;;;;;5018277;28;20072;-83
2022/05/03 01:19:48;;;;;;;14.73;10.77;;;9.50;99.90;;;;;;5017996;28;20059;-83
2022/05/03 01:23:07;;;;;;;12.75;10.10;;;9.50;99.90;;;;;;5034271;28;20132;-83
2022/05/03 01:26:11;;;;;;;13.73;9.95;;;9.50;99.90;;;;;;5018275;28;20033;-83
2022/05/03 01:29:00;;;;;;;12.82;10.50;;;9.50;99.90;;;;;;4993851;28;20046;-83
2022/05/03 01:31:28;;;;;;;11.52;9.35;;;9.60;99.90;;;;;;5017859;28;20634;-82
2022/05/03 01:34:00;;;;;;;20.83;9.90;;;9.70;99.90;;;;;;5034462;28;20109;-83
2022/05/03 01:37:11;;;;;;;23.40;9.93;;;9.70;99.90;;;;;;5034259;28;20496;-83
2022/05/03 01:39:42;;;;;;;11.15;8.95;;;9.80;99.90;;;;;;5015966;28;20045;-83
2022/05/03 01:42:35;;;;;;;11.20;8.63;;;9.90;99.90;;;;;;5017853;28;20037;-83
2022/05/03 01:45:10;;;;;;;12.73;8.40;;;10.00;99.90;;;;;;5035770;28;20025;-83
2022/05/03 01:48:18;;;;;;;10.57;8.95;;;10.00;99.90;;;;;;5017555;28;20091;-83
2022/05/03 01:51:04;;;;;;;11.82;8.23;;;10.00;99.90;;;;;;5033985;28;20444;-83
2022/05/03 01:53:45;;;;;;;10.90;7.63;;;10.10;99.90;;;;;;5017511;28;20472;-83
2022/05/03 01:56:32;;;;;;;11.30;8.13;;;10.10;99.90;;;;;;5035131;28;20017;-83
2022/05/03 01:59:26;;;;;;;11.55;8.02;;;10.10;99.90;;;;;;5035112;28;20037;-83
2022/05/03 02:01:56;;;;;;;10.15;7.82;;;10.10;99.90;;;;;;5033479;28;20763;-83
2022/05/03 02:04:49;;;;;;;10.77;8.68;;;10.10;99.90;;;;;;5017571;28;20037;-83
2022/05/03 02:07:15;;;;;;;11.32;8.50;;;10.10;99.90;;;;;;5017448;28;20143;-83
2022/05/03 02:10:06;;;;;;;11.10;8.77;;;10.20;99.90;;;;;;5016270;28;20057;-83
2022/05/03 02:12:33;;;;;;;14.40;9.48;;;10.20;99.90;;;;;;5016901;28;20074;-83
2022/05/03 02:15:09;;;;;;;10.93;8.85;;;10.20;99.90;;;;;;5034881;28;20021;-83
2022/05/03 02:17:52;;;;;;;17.85;9.65;;;10.20;99.90;;;;;;5033633;28;20037;-83
2022/05/03 02:20:59;;;;;;;11.63;9.27;;;10.20;99.90;;;;;;5033224;28;20033;-83
2022/05/03 02:23:53;;;;;;;11.55;9.07;;;10.10;99.90;;;;;;5005390;28;20052;-83
2022/05/03 02:26:47;;;;;;;13.32;9.18;;;10.00;99.90;;;;;;5033820;28;20036;-83
2022/05/03 02:29:19;;;;;;;11.10;8.93;;;9.90;99.90;;;;;;5017145;28;20140;-83
2022/05/03 02:31:54;;;;;;;11.70;8.82;;;9.80;99.90;;;;;;5017039;28;20120;-83
2022/05/03 02:34:39;;;;;;;14.30;10.20;;;9.80;99.90;;;;;;5034456;28;20033;-83
2022/05/03 02:37:31;;;;;;;11.38;8.55;;;9.80;99.90;;;;;;5034342;28;20120;-83
2022/05/03 02:40:07;;;;;;;11.32;9.07;;;9.80;99.90;;;;;;5016758;28;20037;-83
2022/05/03 02:42:34;;;;;;;12.57;9.73;;;9.80;99.90;;;;;;5032912;28;20037;-83
2022/05/03 02:45:01;;;;;;;11.75;9.55;;;9.90;99.90;;;;;;5032892;28;20068;-83
2022/05/03 02:47:29;;;;;;;12.43;9.07;;;10.10;99.90;;;;;;5033820;28;20083;-83
2022/05/03 02:50:03;;;;;;;15.50;9.77;;;10.10;99.90;;;;;;5032081;28;20040;-83
2022/05/03 02:52:44;;;;;;;14.02;9.57;;;10.20;99.90;;;;;;5032773;28;20037;-83
2022/05/03 02:55:44;;;;;;;14.03;9.87;;;10.20;99.90;;;;;;5016414;28;20040;-83
2022/05/03 02:58:18;;;;;;;12.50;9.25;;;10.30;99.90;;;;;;5032914;28;20875;-83
2022/05/03 03:04:38;;;;;;;13.50;9.10;;;10.20;99.90;;;;;;5033936;28;20074;-83
2022/05/03 03:07:05;;;;;;;10.55;8.07;;;10.10;99.90;;;;;;5032567;28;20041;-83
2022/05/03 03:09:34;;;;;;;9.75;7.85;;;10.10;99.90;;;;;;5016236;28;20048;-83
2022/05/03 03:12:38;;;;;;;9.02;7.60;;;10.00;99.90;;;;;;5032669;28;20044;-83
2022/05/03 03:15:09;;;;;;;11.52;9.20;;;9.90;99.90;;;;;;5033021;28;20424;-83
2022/05/03 03:17:40;;;;;;;9.30;7.65;;;9.80;99.90;;;;;;5016156;28;20044;-83
2022/05/03 03:20:13;;;;;;;11.70;7.87;;;9.80;99.90;;;;;;5032100;28;20038;-83
2022/05/03 03:22:43;;;;;;;10.43;8.02;;;9.70;99.90;;;;;;5033550;28;20280;-83
2022/05/03 03:25:15;;;;;;;10.53;8.20;;;9.70;99.90;;;;;;5033507;28;20045;-83
2022/05/03 03:27:43;;;;;;;8.68;7.72;;;9.60;99.90;;;;;;5032957;28;20087;-83
2022/05/03 03:30:11;;;;;;;10.38;7.88;;;9.40;99.90;;;;;;5016089;28;20844;-83
2022/05/03 03:32:38;;;;;;;10.75;8.52;;;9.30;99.90;;;;;;5015764;28;20029;-83
2022/05/03 03:35:05;;;;;;;9.20;7.75;;;9.20;99.90;;;;;;5032242;28;20406;-83
2022/05/03 03:37:35;;;;;;;12.15;7.43;;;9.10;99.90;;;;;;5032692;28;20488;-82
2022/05/03 03:40:05;;;;;;;9.98;7.82;;;9.00;99.90;;;;;;5016701;28;20029;-83
2022/05/03 03:42:31;;;;;;;10.25;8.43;;;8.80;99.90;;;;;;5032405;28;20037;-82
2022/05/03 03:45:06;;;;;;;28.95;9.40;;;8.70;99.90;;;;;;5015857;28;20094;-81
2022/05/03 03:47:32;;;;;;;17.45;9.27;;;8.70;99.90;;;;;;5015682;28;20061;-83
2022/05/03 03:49:59;;;;;;;11.32;8.88;;;8.70;99.90;;;;;;5015627;28;20021;-83
2022/05/03 03:52:26;;;;;;;11.65;9.38;;;8.70;99.90;;;;;;5015553;28;20052;-82
2022/05/03 03:54:54;;;;;;;10.70;8.80;;;8.70;99.90;;;;;;5031961;28;20103;-83
2022/05/03 03:57:21;;;;;;;12.40;9.10;;;8.60;99.90;;;;;;5015168;28;20048;-83
2022/05/03 03:59:48;;;;;;;11.65;9.07;;;8.60;99.90;;;;;;5031861;28;20041;-83
2022/05/03 04:02:15;;;;;;;12.93;9.50;;;8.50;99.90;;;;;;5031809;28;20124;-81
2022/05/03 04:04:43;;;;;;;10.77;8.85;;;8.40;99.90;;;;;;5015796;28;20099;-80
2022/05/03 04:07:09;;;;;;;13.95;10.60;;;8.30;99.90;;;;;;5015383;28;20049;-81
2022/05/03 04:09:35;;;;;;;16.52;11.32;;;8.30;99.90;;;;;;5031687;28;20382;-81
2022/05/03 04:12:02;;;;;;;22.60;14.15;;;8.20;99.90;;;;;;5032603;28;20064;-81
2022/05/03 04:14:28;;;;;;;19.65;13.60;;;8.20;99.90;;;;;;5031144;28;20128;-81
2022/05/03 04:16:54;;;;;;;22.45;13.55;;;8.30;99.90;;;;;;5031460;28;20088;-80
2022/05/03 04:19:21;;;;;;;15.38;11.30;;;8.40;99.90;;;;;;5031640;28;20041;-80
2022/05/03 04:21:47;;;;;;;16.00;11.98;;;8.50;99.90;;;;;;5031002;28;20040;-81
2022/05/03 04:24:13;;;;;;;15.45;11.35;;;8.70;99.90;;;;;;5031620;28;20034;-81
2022/05/03 04:26:39;;;;;;;18.52;15.18;;;8.90;99.90;;;;;;5014749;28;20136;-81
2022/05/03 04:29:05;;;;;;;22.02;13.52;;;9.10;99.90;;;;;;5014799;28;20128;-81
2022/05/03 04:31:33;;;;;;;17.85;12.07;;;9.20;99.90;;;;;;5031091;28;20496;-81
2022/05/03 04:34:02;;;;;;;13.13;10.65;;;9.40;99.90;;;;;;5013937;28;20026;-81
2022/05/03 04:36:29;;;;;;;12.77;10.20;;;9.50;99.90;;;;;;5014693;28;20029;-81
2022/05/03 04:38:59;;;;;;;15.63;10.88;;;9.70;99.90;;;;;;5031013;28;20040;-81
2022/05/03 04:41:26;;;;;;;14.57;10.50;;;10.00;99.90;;;;;;5030710;28;20497;-81
2022/05/03 04:43:52;;;;;;;13.00;9.50;;;10.20;99.90;;;;;;5031957;28;20030;-81
2022/05/03 04:46:19;;;;;;;11.75;9.48;;;10.40;99.90;;;;;;5031061;28;20393;-81
2022/05/03 04:48:44;;;;;;;13.27;9.13;;;10.40;99.90;;;;;;5014401;28;20037;-81
2022/05/03 04:51:23;;;;;;;11.35;8.70;;;10.60;99.90;;;;;;5030883;28;20397;-81
2022/05/03 04:53:50;;;;;;;11.60;8.90;;;10.70;99.90;;;;;;5032368;28;20038;-81
2022/05/03 04:56:20;;;;;;;14.30;8.95;;;10.80;99.90;;;;;;5014682;28;20030;-81
2022/05/03 04:58:50;;;;;;;14.93;9.23;;;11.00;99.90;;;;;;5030769;28;20053;-81
2022/05/03 05:01:17;;;;;;;11.63;8.32;;;11.10;99.90;;;;;;5030387;28;20025;-81
2022/05/03 05:03:44;;;;;;;11.85;9.27;;;11.20;99.90;;;;;;5031082;28;20136;-81
2022/05/03 05:06:10;;;;;;;11.93;8.63;;;11.30;99.90;;;;;;5031016;28;20029;-81
2022/05/03 05:08:41;;;;;;;15.45;8.38;;;11.40;99.90;;;;;;5032129;28;20037;-81
2022/05/03 05:11:07;;;;;;;14.90;10.80;;;11.50;99.90;;;;;;5030749;28;20040;-81
2022/05/03 05:13:34;;;;;;;13.43;9.98;;;11.60;99.90;;;;;;5031148;28;20260;-81
2022/05/03 05:16:00;;;;;;;13.52;10.70;;;11.60;99.90;;;;;;5032613;28;20104;-81
2022/05/03 05:18:27;;;;;;;11.65;9.57;;;11.70;99.90;;;;;;5032378;28;20228;-81
2022/05/03 05:20:54;;;;;;;13.13;9.57;;;11.80;99.90;;;;;;5030805;28;20036;-81
2022/05/03 05:23:19;;;;;;;11.05;9.30;;;11.80;99.90;;;;;;5031041;28;20042;-81
2022/05/03 05:25:49;;;;;;;11.13;8.68;;;11.90;99.90;;;;;;5014448;28;20053;-81
2022/05/03 05:28:17;;;;;;;12.85;10.18;;;11.90;99.90;;;;;;5031104;28;20393;-81
2022/05/03 05:30:43;;;;;;;14.25;9.43;;;12.00;99.90;;;;;;5030695;28;20087;-81
2022/05/03 05:33:09;;;;;;;12.77;9.38;;;12.10;99.90;;;;;;5014167;28;20033;-81
2022/05/03 05:35:35;;;;;;;15.95;11.45;;;12.20;99.90;;;;;;5031740;28;20094;-82
2022/05/03 05:38:01;;;;;;;17.48;12.23;;;12.30;99.90;;;;;;5030285;28;20504;-82
2022/05/03 05:40:26;;;;;;;16.95;12.77;;;12.50;99.90;;;;;;5031194;28;20072;-82
2022/05/03 05:42:52;;;;;;;14.55;11.65;;;12.60;99.90;;;;;;5030622;28;20033;-81
2022/05/03 05:45:18;;;;;;;13.38;10.15;;;12.80;99.90;;;;;;5035374;28;20029;-81
2022/05/03 05:47:44;;;;;;;12.48;9.55;;;12.90;99.90;;;;;;5034045;28;20041;-81
2022/05/03 05:50:13;;;;;;;11.60;9.00;;;13.00;99.90;;;;;;5034012;28;20026;-81
2022/05/03 05:55:48;;;;;;;15.15;9.15;;;13.20;99.90;;;;;;5035613;28;20167;-81
2022/05/03 05:58:14;;;;;;;10.05;8.48;;;13.40;99.90;;;;;;5033558;28;20784;-81
2022/05/03 06:00:39;;;;;;;13.13;8.85;;;13.50;99.90;;;;;;5016900;28;20044;-81
2022/05/03 06:03:05;;;;;;;12.00;8.68;;;13.70;99.90;;;;;;5034642;28;20481;-81
2022/05/03 06:05:32;;;;;;;9.20;8.10;;;13.80;99.90;;;;;;5034244;28;20034;-81
2022/05/03 06:07:58;;;;;;;11.27;8.35;;;13.90;99.90;;;;;;5033137;28;20030;-81
2022/05/03 06:10:24;;;;;;;10.88;8.63;;;14.10;99.90;;;;;;5033396;28;20037;-81
2022/05/03 06:12:50;;;;;;;10.77;9.20;;;14.20;99.90;;;;;;5034754;28;20022;-81
2022/05/03 06:15:19;;;;;;;10.45;8.57;;;14.40;99.90;;;;;;5017079;28;20469;-81
2022/05/03 06:17:45;;;;;;;10.48;8.05;;;14.60;99.90;;;;;;5033392;28;20045;-80
2022/05/03 06:20:11;;;;;;;12.50;8.68;;;14.90;99.90;;;;;;5033277;28;20064;-81
2022/05/03 06:22:39;;;;;;;11.20;8.65;;;15.00;99.90;;;;;;5034512;28;20029;-81
2022/05/03 06:25:09;;;;;;;11.65;8.60;;;15.10;99.90;;;;;;5033256;28;20041;-81
2022/05/03 06:27:36;;;;;;;9.57;8.32;;;15.30;99.90;;;;;;5016766;28;20034;-81
2022/05/03 06:30:04;;;;;;;12.00;7.68;;;15.40;99.90;;;;;;5034514;28;20029;-81
2022/05/03 06:32:30;;;;;;;11.70;7.80;;;15.50;99.90;;;;;;5016675;28;20088;-81
2022/05/03 06:34:56;;;;;;;10.02;7.70;;;15.60;99.90;;;;;;5032940;28;20068;-81
2022/05/03 06:37:21;;;;;;;9.70;7.85;;;15.80;99.90;;;;;;5032808;28;20052;-81
2022/05/03 06:40:15;;;;;;;9.98;6.95;;;16.00;99.90;;;;;;5033765;28;20120;-82
2022/05/03 06:42:41;;;;;;;7.22;6.50;;;15.90;99.90;;;;;;5033028;28;20034;-81
2022/05/03 06:45:08;;;;;;;8.02;5.90;;;16.00;99.90;;;;;;5016472;28;20048;-81
2022/05/03 06:48:12;;;;;;;7.20;5.75;;;16.20;99.90;;;;;;5016152;28;20045;-81
2022/05/03 06:50:38;;;;;;;7.43;5.95;;;16.50;99.90;;;;;;5016234;28;20409;-81
2022/05/03 06:53:04;;;;;;;7.70;5.90;;;16.60;99.90;;;;;;5032463;28;20029;-81
2022/05/03 06:55:29;;;;;;;7.03;6.00;;;16.90;99.90;;;;;;5032433;28;20041;-81
2022/05/03 06:57:55;;;;;;;7.85;5.78;;;17.00;99.90;;;;;;5032864;28;20543;-81
2022/05/03 07:00:21;;;;;;;7.95;6.18;;;17.20;99.90;;;;;;5034204;28;20048;-81
2022/05/03 07:02:46;;;;;;;8.98;6.28;;;17.30;99.90;;;;;;5032414;28;20037;-81
2022/05/03 07:05:12;;;;;;;6.57;5.28;;;17.30;99.90;;;;;;5032838;28;20485;-81
2022/05/03 07:07:39;;;;;;;5.78;4.85;;;17.20;99.90;;;;;;5015943;28;20037;-81
2022/05/03 07:10:05;;;;;;;5.35;4.85;;;17.20;99.90;;;;;;5015622;28;20034;-81
2022/05/03 07:12:32;;;;;;;5.57;4.70;;;17.00;99.90;;;;;;5032459;28;20065;-81
2022/05/03 07:14:59;;;;;;;8.07;5.70;;;17.00;99.90;;;;;;5032146;28;20112;-80
2022/05/03 07:22:54;;;;;;;9.85;7.30;;;16.80;99.90;;;;;;5033052;28;20032;-81
2022/05/03 07:25:19;;;;;;;12.10;7.38;;;16.70;99.90;;;;;;5015693;28;20484;-81
2022/05/03 07:27:46;;;;;;;10.27;6.30;;;16.90;99.90;;;;;;5015645;28;20136;-81
2022/05/03 07:30:16;;;;;;;7.70;5.70;;;17.10;99.90;;;;;;5032125;28;20810;-81
2022/05/03 07:32:43;;;;;;;6.93;6.22;;;17.00;99.90;;;;;;5033165;28;20033;-81
2022/05/03 07:35:09;;;;;;;7.65;5.53;;;17.20;99.90;;;;;;5031677;28;20034;-81
2022/05/03 07:37:36;;;;;;;9.55;5.00;;;17.30;99.90;;;;;;5032052;28;20079;-81
2022/05/03 07:40:03;;;;;;;6.15;5.07;;;17.40;99.90;;;;;;5032151;28;20036;-81
2022/05/03 07:42:28;;;;;;;6.43;5.35;;;17.40;99.90;;;;;;5031571;28;20037;-81
2022/05/03 07:44:54;;;;;;;8.50;5.78;;;17.30;99.90;;;;;;5031921;28;20742;-81
2022/05/03 07:47:20;;;;;;;6.07;5.38;;;17.20;99.90;;;;;;5033138;28;20041;-81
2022/05/03 07:49:45;;;;;;;9.43;4.82;;;17.30;99.90;;;;;;5015628;28;20112;-81
2022/05/03 07:52:11;;;;;;;6.18;4.82;;;17.70;99.90;;;;;;5031879;28;20485;-81
2022/05/03 07:54:41;;;;;;;6.45;5.20;;;18.40;99.90;;;;;;5015605;28;20658;-81
2022/05/03 07:57:08;;;;;;;5.85;4.53;;;18.60;99.90;;;;;;5015288;28;20140;-81
2022/05/03 07:59:34;;;;;;;7.57;5.07;;;18.80;99.90;;;;;;5015340;28;20037;-81
2022/05/03 08:02:00;;;;;;;9.02;6.60;;;18.80;99.90;;;;;;5032053;28;20668;-81
2022/05/03 08:04:26;;;;;;;9.00;6.55;;;18.90;99.90;;;;;;5031506;28;20740;-81
2022/05/03 08:06:51;;;;;;;7.63;4.72;;;19.10;99.90;;;;;;5030730;28;20037;-81
2022/05/03 08:09:17;;;;;;;7.45;4.85;;;19.50;99.90;;;;;;5031570;28;20389;-82
2022/05/03 08:11:49;;;;;;;8.07;5.28;;;19.90;99.90;;;;;;5031532;28;20029;-82
2022/05/03 08:14:15;;;;;;;5.13;4.47;;;19.70;99.90;;;;;;5031223;28;20033;-81
2022/05/03 08:16:41;;;;;;;4.95;4.38;;;19.90;99.90;;;;;;5031556;28;20025;-81
2022/05/03 08:22:54;;;;;;;7.80;4.05;;;19.80;99.90;;;;;;5032661;28;20520;-82
2022/05/03 08:25:19;;;;;;;6.72;4.75;;;20.20;99.90;;;;;;5014547;28;20065;-82
2022/05/03 08:27:45;;;;;;;5.97;4.80;;;20.30;99.90;;;;;;5014547;28;20029;-83
2022/05/03 08:30:12;;;;;;;6.68;5.32;;;20.00;99.90;;;;;;5032514;28;20021;-81
2022/05/03 08:32:37;;;;;;;7.80;4.65;;;20.10;99.90;;;;;;5030850;28;20545;-81
2022/05/03 08:35:04;;;;;;;6.15;5.47;;;20.50;99.90;;;;;;5030491;28;20038;-81
2022/05/03 08:43:01;;;;;;;5.68;4.20;;;21.10;99.90;;;;;;5032201;28;20120;-82
2022/05/03 08:45:26;;;;;;;6.30;4.53;;;21.80;99.90;;;;;;5014194;28;20129;-81
2022/05/03 08:47:54;;;;;;;4.53;4.07;;;21.40;99.90;;;;;;5014047;28;20022;-81
2022/05/03 08:50:20;;;;;;;5.90;4.30;;;22.30;99.90;;;;;;5032320;28;20116;-82
2022/05/03 08:52:50;;;;;;;4.32;3.92;;;23.80;99.80;;;;;;5032173;28;20572;-81
2022/05/03 08:55:16;;;;;;;5.35;4.35;;;24.80;96.10;;;;;;5032318;28;20017;-81
2022/05/03 08:57:43;;;;;;;5.22;4.18;;;24.70;94.50;;;;;;5030981;28;20040;-81
2022/05/03 09:00:10;;;;;;;6.38;3.90;;;25.30;93.30;;;;;;5014730;28;20039;-81
2022/05/03 09:03:29;;;;;;;6.25;4.50;;;25.30;92.80;;;;;;5031045;28;20756;-81
2022/05/03 09:05:54;;;;;;;6.03;3.80;;;25.30;89.30;;;;;;5014616;28;20038;-81
2022/05/03 09:08:23;;;;;;;13.82;7.22;;;26.00;81.90;;;;;;5030656;28;20694;-82
2022/05/03 09:10:49;;;;;;;6.30;4.13;;;26.30;80.80;;;;;;5014185;28;20393;-81
2022/05/03 09:13:22;;;;;;;7.57;3.55;;;26.20;78.00;;;;;;5030424;28;20043;-81
2022/05/03 09:15:55;;;;;;;6.95;4.10;;;25.50;79.00;;;;;;5014355;28;20087;-81
2022/05/03 09:18:25;;;;;;;4.43;3.50;;;25.30;77.50;;;;;;5031464;28;20397;-81
2022/05/03 09:23:48;;;;;;;4.22;3.78;;;24.70;77.90;;;;;;5034729;28;20037;-81
2022/05/03 09:26:31;;;;;;;6.40;4.20;;;24.40;75.60;;;;;;5018220;28;20485;-81
2022/05/03 09:29:03;;;;;;;5.68;3.38;;;24.20;76.20;;;;;;5018291;28;20080;-82
2022/05/03 09:31:43;;;;;;;5.60;3.50;;;24.40;73.80;;;;;;5018204;28;20026;-81
2022/05/03 09:34:18;;;;;;;4.63;3.63;;;24.00;75.80;;;;;;5017620;28;20035;-81
2022/05/03 09:36:55;;;;;;;4.47;4.07;;;23.40;78.80;;;;;;5034499;28;20025;-81
2022/05/03 09:39:26;;;;;;;6.43;3.42;;;23.60;78.40;;;;;;5017634;28;20033;-82
2022/05/03 09:42:12;;;;;;;11.07;4.13;;;24.00;73.40;;;;;;5033746;28;20087;-82
2022/05/03 09:44:50;;;;;;;5.57;4.00;;;25.10;72.20;;;;;;5034434;28;20029;-81
2022/05/03 09:47:16;;;;;;;9.50;4.25;;;25.10;72.80;;;;;;5017418;28;20725;-82
2022/05/03 09:50:01;;;;;;;7.78;3.90;;;25.30;73.50;;;;;;5017696;28;20037;-82
2022/05/03 09:52:36;;;;;;;5.93;3.80;;;25.10;70.70;;;;;;5034705;28;20025;-82
2022/05/03 09:55:10;;;;;;;8.52;3.83;;;24.30;71.60;;;;;;5033724;28;20034;-82
2022/05/03 09:57:38;;;;;;;4.95;3.53;;;24.30;74.60;;;;;;5033626;28;20087;-82
2022/05/03 10:00:06;;;;;;;6.07;4.10;;;24.10;74.00;;;;;;5033415;28;20581;-82
2022/05/03 10:02:42;;;;;;;6.53;4.30;;;23.90;74.70;;;;;;5034621;28;20400;-81
2022/05/03 10:05:10;;;;;;;8.63;4.07;;;23.30;76.10;;;;;;5033848;28;20029;-81
2022/05/03 10:07:36;;;;;;;6.25;4.10;;;22.80;76.60;;;;;;5033789;28;20030;-81
2022/05/03 10:10:07;;;;;;;5.82;4.40;;;22.70;77.10;;;;;;5017444;28;20045;-81
2022/05/03 10:12:35;;;;;;;4.75;4.25;;;22.60;78.50;;;;;;5033962;28;20030;-81
2022/05/03 10:15:01;;;;;;;5.40;4.13;;;22.80;78.70;;;;;;5033795;28;20441;-81
2022/05/03 10:20:38;;;;;;;8.45;4.57;;;22.70;77.00;;;;;;5033809;28;20036;-82
2022/05/03 10:23:17;;;;;;;7.03;4.97;;;22.60;77.30;;;;;;5033444;28;20044;-81
2022/05/03 10:25:45;;;;;;;7.18;4.22;;;22.50;77.60;;;;;;5032900;28;20109;-81
2022/05/03 10:28:11;;;;;;;5.25;4.43;;;23.20;78.20;;;;;;5034356;28;20040;-81
2022/05/03 10:30:38;;;;;;;10.68;5.00;;;23.00;75.80;;;;;;5032268;28;20033;-81
2022/05/03 10:33:20;;;;;;;9.35;5.32;;;22.20;77.80;;;;;;5016693;28;20029;-81
2022/05/03 10:35:49;;;;;;;6.82;4.72;;;22.20;83.70;;;;;;5034362;28;20036;-81
2022/05/03 10:38:34;;;;;;;6.95;4.53;;;22.60;78.70;;;;;;5016907;28;20053;-81
2022/05/03 10:40:59;;;;;;;6.15;5.50;;;22.30;81.20;;;;;;5016291;28;20041;-81
2022/05/03 10:43:27;;;;;;;9.32;5.05;;;21.80;80.70;;;;;;5015818;28;20028;-82
2022/05/03 10:45:58;;;;;;;12.30;6.15;;;21.60;83.80;;;;;;5032766;28;20034;-81
2022/05/03 10:48:30;;;;;;;7.35;5.88;;;21.60;84.90;;;;;;5016211;28;20033;-82
2022/05/03 10:51:06;;;;;;;13.80;4.90;;;21.70;82.70;;;;;;5016197;28;20030;-82
2022/05/03 10:53:37;;;;;;;10.02;5.18;;;21.70;83.10;;;;;;5016377;28;20724;-82
2022/05/03 10:56:18;;;;;;;9.77;5.22;;;22.00;82.10;;;;;;5032404;28;20061;-82
2022/05/03 10:59:07;;;;;;;7.05;5.65;;;22.00;82.20;;;;;;5015241;28;20477;-81
2022/05/03 11:01:54;;;;;;;8.80;6.45;;;22.00;80.20;;;;;;5032124;28;20107;-81
2022/05/03 11:04:20;;;;;;;7.63;6.28;;;21.70;83.90;;;;;;5032652;28;20120;-81
2022/05/03 11:06:49;;;;;;;6.50;5.30;;;21.50;83.90;;;;;;5015962;28;20052;-81
2022/05/03 11:09:28;;;;;;;7.05;5.82;;;21.40;82.70;;;;;;5032186;28;20065;-82
2022/05/03 11:11:56;;;;;;;12.27;6.13;;;21.30;83.90;;;;;;5031942;28;20544;-82
2022/05/03 11:14:22;;;;;;;7.07;6.38;;;21.50;87.30;;;;;;5031987;28;20063;-82
2022/05/03 11:16:49;;;;;;;8.57;6.10;;;21.40;84.80;;;;;;5032374;28;20496;-81
2022/05/03 11:19:25;;;;;;;9.88;7.07;;;20.90;87.00;;;;;;5032653;28;20034;-81
2022/05/03 11:22:10;;;;;;;7.57;6.30;;;20.30;88.90;;;;;;5016120;28;20120;-81
2022/05/03 11:24:41;;;;;;;8.10;6.03;;;19.80;90.90;;;;;;5015842;28;20044;-81
2022/05/03 11:27:11;;;;;;;11.23;6.63;;;19.40;90.00;;;;;;5015645;28;20037;-81
2022/05/03 11:29:41;;;;;;;13.07;6.40;;;19.30;90.80;;;;;;5032526;28;20272;-82
2022/05/03 11:32:08;;;;;;;13.90;7.97;;;19.20;93.40;;;;;;5014843;28;20116;-80
2022/05/03 11:34:35;;;;;;;10.75;7.95;;;18.80;98.30;;;;;;5015144;28;20021;-80
2022/05/03 11:37:03;;;;;;;12.20;7.82;;;18.10;99.20;;;;;;5015424;28;20068;-81
2022/05/03 11:39:29;;;;;;;11.38;7.97;;;17.90;99.90;;;;;;5031746;28;20112;-81
2022/05/03 11:41:55;;;;;;;11.35;8.18;;;17.90;99.90;;;;;;5031391;28;20388;-81
2022/05/03 11:44:22;;;;;;;12.48;7.72;;;18.20;99.90;;;;;;5031888;28;20408;-81
2022/05/03 11:46:49;;;;;;;6.85;6.15;;;18.50;99.90;;;;;;5032069;28;20040;-81
2022/05/03 11:49:17;;;;;;;7.18;5.10;;;18.80;99.90;;;;;;5015918;28;20044;-81
2022/05/03 11:57:42;;;;;;;6.53;5.30;;;19.50;99.30;;;;;;5032488;28;20038;-81
2022/05/03 12:00:15;;;;;;;10.48;7.13;;;19.50;99.90;;;;;;5014696;28;20038;-81
2022/05/03 12:02:44;;;;;;;8.35;6.60;;;19.50;99.10;;;;;;5030844;28;20045;-81
2022/05/03 12:05:11;;;;;;;8.38;6.85;;;19.40;99.80;;;;;;5031056;28;20068;-81
2022/05/03 12:07:38;;;;;;;13.20;6.68;;;19.40;99.80;;;;;;5031568;28;20036;-81
2022/05/03 12:10:21;;;;;;;9.52;7.40;;;19.10;99.90;;;;;;5031475;28;20034;-81
2022/05/03 12:13:08;;;;;;;9.13;7.18;;;19.00;99.90;;;;;;5014775;28;20037;-81
2022/05/03 12:16:18;;;;;;;7.25;6.15;;;19.00;99.90;;;;;;5032410;28;20029;-81
2022/05/03 12:18:49;;;;;;;9.15;6.20;;;19.20;99.90;;;;;;5031142;28;20030;-81
2022/05/03 12:21:26;;;;;;;8.10;6.75;;;19.30;99.90;;;;;;5031099;28;20040;-81
2022/05/03 12:23:57;;;;;;;7.55;6.75;;;19.40;99.90;;;;;;5031669;28;20033;-81
2022/05/03 12:26:37;;;;;;;9.27;6.60;;;19.20;99.50;;;;;;5031657;28;20029;-81
2022/05/03 12:29:03;;;;;;;9.63;6.93;;;19.00;99.90;;;;;;5014589;28;20030;-81
2022/05/03 12:31:38;;;;;;;9.52;7.63;;;18.60;99.90;;;;;;5031260;28;20034;-81
2022/05/03 12:34:25;;;;;;;7.40;6.65;;;18.30;99.90;;;;;;5032162;28;20033;-81
2022/05/03 12:37:02;;;;;;;12.50;7.38;;;18.30;99.90;;;;;;5031444;28;20048;-81
2022/05/03 12:39:30;;;;;;;9.75;7.03;;;18.30;99.90;;;;;;5013940;28;20029;-81
2022/05/03 12:41:57;;;;;;;11.13;6.50;;;18.60;99.90;;;;;;5030840;28;20032;-81
2022/05/03 12:44:23;;;;;;;9.82;6.38;;;18.90;99.90;;;;;;5014713;28;20551;-81
2022/05/03 12:46:50;;;;;;;9.25;6.70;;;19.20;99.90;;;;;;5014520;28;20048;-81
2022/05/03 12:49:16;;;;;;;6.72;6.05;;;19.30;99.90;;;;;;5032119;28;20033;-81
2022/05/03 12:51:45;;;;;;;7.40;6.30;;;19.40;99.90;;;;;;5023108;28;20030;-81
2022/05/03 12:54:11;;;;;;;6.93;6.05;;;19.70;99.90;;;;;;5014406;28;20590;-81
2022/05/03 12:59:23;;;;;;;8.50;6.90;;;20.00;99.90;;;;;;5031868;28;20033;-81
2022/05/03 13:01:54;;;;;;;10.60;6.15;;;20.10;99.90;;;;;;5018291;28;20483;-81
2022/05/03 13:04:20;;;;;;;9.32;6.20;;;20.30;98.90;;;;;;5018532;28;20053;-81
2022/05/03 13:06:47;;;;;;;9.05;6.30;;;20.40;97.80;;;;;;5035954;28;20032;-81
2022/05/03 13:09:13;;;;;;;9.57;5.90;;;20.70;97.00;;;;;;5034701;28;20049;-81
2022/05/03 13:11:39;;;;;;;7.38;5.82;;;20.60;99.90;;;;;;5017969;28;20069;-81
2022/05/03 13:14:06;;;;;;;12.98;6.55;;;20.00;99.90;;;;;;5034047;28;20110;-81
2022/05/03 13:16:32;;;;;;;8.70;6.70;;;19.50;99.90;;;;;;5017394;28;20029;-81
2022/05/03 13:18:58;;;;;;;16.40;6.60;;;19.60;99.90;;;;;;5017634;28;20065;-81
2022/05/03 13:21:28;;;;;;;8.18;6.35;;;19.80;99.90;;;;;;5017676;28;20721;-81
2022/05/03 13:23:53;;;;;;;9.23;5.50;;;20.10;99.90;;;;;;5034612;28;20436;-82
2022/05/03 13:26:20;;;;;;;9.20;5.70;;;20.50;99.90;;;;;;5036071;28;20029;-81
2022/05/03 13:28:46;;;;;;;6.82;6.22;;;20.90;99.90;;;;;;5018009;28;20033;-81
2022/05/03 13:31:14;;;;;;;6.40;5.80;;;21.10;98.10;;;;;;5035706;28;20025;-81
2022/05/03 13:33:40;;;;;;;9.45;5.82;;;21.00;96.90;;;;;;5017393;28;20128;-81
2022/05/03 13:41:35;;;;;;;8.25;5.82;;;21.90;95.80;;;;;;5034443;28;20040;-81
2022/05/03 13:44:02;;;;;;;10.90;5.22;;;22.00;93.60;;;;;;5017723;28;20029;-82
2022/05/03 13:47:08;;;;;;;5.68;5.07;;;22.20;92.00;;;;;;5017594;28;20045;-81
2022/05/03 13:49:34;;;;;;;6.25;4.75;;;23.30;93.30;;;;;;5017893;28;20029;-81